sensor_id;sensor_type;location;lat;lon;timestamp;P1;durP1;ratioP1;P2;durP2;ratioP2
51732;SDS011;39139;53.144;6.244;2023-08-08T00:00:57;5.47;;;3.17;;
51732;SDS011;39139;53.144;6.244;2023-08-08T00:03:24;5.57;;;3.25;;
51732;SDS011;39139;53.144;6.244;2023-08-08T00:05:49;5.72;;;3.30;;
51732;SDS011;39139;53.144;6.244;2023-08-08T00:08:15;5.35;;;2.95;;
51732;SDS011;39139;53.144;6.244;2023-08-08T00:10:41;6.65;;;3.50;;
51732;SDS011;39139;53.144;6.244;2023-08-08T00:13:06;5.40;;;2.72;;
51732;SDS011;39139;53.144;6.244;2023-08-08T00:15:32;6.00;;;3.03;;
51732;SDS011;39139;53.144;6.244;2023-08-08T00:17:58;7.72;;;3.30;;
51732;SDS011;39139;53.144;6.244;2023-08-08T00:20:23;7.30;;;3.40;;
51732;SDS011;39139;53.144;6.244;2023-08-08T00:22:49;6.68;;;2.60;;
51732;SDS011;39139;53.144;6.244;2023-08-08T00:25:15;4.18;;;3.13;;
51732;SDS011;39139;53.144;6.244;2023-08-08T00:27:40;10.77;;;3.10;;
51732;SDS011;39139;53.144;6.244;2023-08-08T00:30:09;4.60;;;2.38;;
51732;SDS011;39139;53.144;6.244;2023-08-08T00:32:41;5.55;;;2.88;;
51732;SDS011;39139;53.144;6.244;2023-08-08T00:35:07;5.28;;;3.10;;
51732;SDS011;39139;53.144;6.244;2023-08-08T00:37:36;4.10;;;3.15;;
51732;SDS011;39139;53.144;6.244;2023-08-08T00:40:02;3.05;;;2.53;;
51732;SDS011;39139;53.144;6.244;2023-08-08T00:42:31;6.88;;;3.15;;
51732;SDS011;39139;53.144;6.244;2023-08-08T00:44:56;10.85;;;2.38;;
51732;SDS011;39139;53.144;6.244;2023-08-08T00:47:27;5.05;;;2.55;;
51732;SDS011;39139;53.144;6.244;2023-08-08T00:49:58;4.32;;;2.65;;
51732;SDS011;39139;53.144;6.244;2023-08-08T00:52:25;4.78;;;2.35;;
51732;SDS011;39139;53.144;6.244;2023-08-08T00:54:52;6.05;;;2.47;;
51732;SDS011;39139;53.144;6.244;2023-08-08T00:57:20;6.60;;;2.22;;
51732;SDS011;39139;53.144;6.244;2023-08-08T00:59:46;3.10;;;2.53;;
51732;SDS011;39139;53.144;6.244;2023-08-08T01:02:12;7.05;;;2.70;;
51732;SDS011;39139;53.144;6.244;2023-08-08T01:04:38;6.20;;;2.83;;
51732;SDS011;39139;53.144;6.244;2023-08-08T01:10:04;4.32;;;2.03;;
51732;SDS011;39139;53.144;6.244;2023-08-08T01:12:34;5.10;;;2.70;;
51732;SDS011;39139;53.144;6.244;2023-08-08T01:15:12;9.20;;;2.10;;
51732;SDS011;39139;53.144;6.244;2023-08-08T01:17:38;9.35;;;2.67;;
51732;SDS011;39139;53.144;6.244;2023-08-08T01:20:06;6.45;;;2.05;;
51732;SDS011;39139;53.144;6.244;2023-08-08T01:22:40;7.20;;;2.25;;
51732;SDS011;39139;53.144;6.244;2023-08-08T01:25:13;10.77;;;2.13;;
51732;SDS011;39139;53.144;6.244;2023-08-08T01:27:39;10.23;;;2.55;;
51732;SDS011;39139;53.144;6.244;2023-08-08T01:30:06;6.20;;;1.95;;
51732;SDS011;39139;53.144;6.244;2023-08-08T01:32:32;8.32;;;2.88;;
51732;SDS011;39139;53.144;6.244;2023-08-08T01:34:58;8.70;;;2.92;;
51732;SDS011;39139;53.144;6.244;2023-08-08T01:37:32;6.32;;;2.63;;
51732;SDS011;39139;53.144;6.244;2023-08-08T01:40:05;11.55;;;2.45;;
51732;SDS011;39139;53.144;6.244;2023-08-08T01:42:32;16.15;;;2.92;;
51732;SDS011;39139;53.144;6.244;2023-08-08T01:44:58;11.30;;;2.65;;
51732;SDS011;39139;53.144;6.244;2023-08-08T01:47:24;8.80;;;2.38;;
51732;SDS011;39139;53.144;6.244;2023-08-08T01:49:50;7.75;;;2.60;;
51732;SDS011;39139;53.144;6.244;2023-08-08T01:52:16;4.47;;;2.35;;
51732;SDS011;39139;53.144;6.244;2023-08-08T01:54:41;10.13;;;3.55;;
51732;SDS011;39139;53.144;6.244;2023-08-08T01:57:08;7.45;;;2.85;;
51732;SDS011;39139;53.144;6.244;2023-08-08T01:59:33;6.80;;;3.50;;
51732;SDS011;39139;53.144;6.244;2023-08-08T02:01:59;6.03;;;3.25;;
51732;SDS011;39139;53.144;6.244;2023-08-08T02:04:25;5.90;;;3.15;;
51732;SDS011;39139;53.144;6.244;2023-08-08T02:06:50;6.68;;;3.38;;
51732;SDS011;39139;53.144;6.244;2023-08-08T02:09:16;5.65;;;3.17;;
51732;SDS011;39139;53.144;6.244;2023-08-08T02:11:42;11.38;;;4.15;;
51732;SDS011;39139;53.144;6.244;2023-08-08T02:14:07;6.47;;;3.05;;
51732;SDS011;39139;53.144;6.244;2023-08-08T02:16:33;5.60;;;4.28;;
51732;SDS011;39139;53.144;6.244;2023-08-08T02:18:59;14.00;;;7.78;;
51732;SDS011;39139;53.144;6.244;2023-08-08T02:21:25;12.02;;;7.97;;
51732;SDS011;39139;53.144;6.244;2023-08-08T02:23:51;22.63;;;8.10;;
51732;SDS011;39139;53.144;6.244;2023-08-08T02:26:17;14.27;;;8.35;;
51732;SDS011;39139;53.144;6.244;2023-08-08T02:28:44;12.85;;;8.23;;
51732;SDS011;39139;53.144;6.244;2023-08-08T02:31:10;12.80;;;7.68;;
51732;SDS011;39139;53.144;6.244;2023-08-08T02:33:35;13.23;;;7.60;;
51732;SDS011;39139;53.144;6.244;2023-08-08T02:36:01;11.13;;;6.30;;
51732;SDS011;39139;53.144;6.244;2023-08-08T02:38:27;11.85;;;6.85;;
51732;SDS011;39139;53.144;6.244;2023-08-08T02:40:52;12.20;;;6.85;;
51732;SDS011;39139;53.144;6.244;2023-08-08T02:43:18;9.38;;;5.65;;
51732;SDS011;39139;53.144;6.244;2023-08-08T02:45:44;11.82;;;5.78;;
51732;SDS011;39139;53.144;6.244;2023-08-08T02:48:10;13.38;;;4.63;;
51732;SDS011;39139;53.144;6.244;2023-08-08T02:50:35;10.98;;;4.07;;
51732;SDS011;39139;53.144;6.244;2023-08-08T02:53:01;11.68;;;3.67;;
51732;SDS011;39139;53.144;6.244;2023-08-08T02:55:27;6.63;;;3.03;;
51732;SDS011;39139;53.144;6.244;2023-08-08T02:57:54;6.13;;;2.75;;
51732;SDS011;39139;53.144;6.244;2023-08-08T03:00:20;13.05;;;3.35;;
51732;SDS011;39139;53.144;6.244;2023-08-08T03:02:46;7.10;;;2.15;;
51732;SDS011;39139;53.144;6.244;2023-08-08T03:05:12;6.88;;;2.15;;
51732;SDS011;39139;53.144;6.244;2023-08-08T03:07:38;5.13;;;1.77;;
51732;SDS011;39139;53.144;6.244;2023-08-08T03:10:03;8.65;;;2.13;;
51732;SDS011;39139;53.144;6.244;2023-08-08T03:12:30;2.13;;;1.65;;
51732;SDS011;39139;53.144;6.244;2023-08-08T03:14:55;6.35;;;1.35;;
51732;SDS011;39139;53.144;6.244;2023-08-08T03:17:21;7.60;;;2.00;;
51732;SDS011;39139;53.144;6.244;2023-08-08T03:19:47;5.15;;;2.00;;
51732;SDS011;39139;53.144;6.244;2023-08-08T03:22:13;4.80;;;1.88;;
51732;SDS011;39139;53.144;6.244;2023-08-08T03:24:38;6.07;;;1.75;;
51732;SDS011;39139;53.144;6.244;2023-08-08T03:27:04;5.20;;;1.88;;
51732;SDS011;39139;53.144;6.244;2023-08-08T03:29:30;7.55;;;2.30;;
51732;SDS011;39139;53.144;6.244;2023-08-08T03:31:55;4.13;;;1.73;;
51732;SDS011;39139;53.144;6.244;2023-08-08T03:34:21;3.13;;;2.15;;
51732;SDS011;39139;53.144;6.244;2023-08-08T03:36:47;7.75;;;2.22;;
51732;SDS011;39139;53.144;6.244;2023-08-08T03:39:12;4.22;;;1.90;;
51732;SDS011;39139;53.144;6.244;2023-08-08T03:41:38;7.78;;;2.38;;
51732;SDS011;39139;53.144;6.244;2023-08-08T03:44:03;4.10;;;2.17;;
51732;SDS011;39139;53.144;6.244;2023-08-08T03:46:29;10.05;;;2.20;;
51732;SDS011;39139;53.144;6.244;2023-08-08T03:48:55;6.35;;;2.80;;
51732;SDS011;39139;53.144;6.244;2023-08-08T03:51:21;14.98;;;3.15;;
51732;SDS011;39139;53.144;6.244;2023-08-08T03:53:47;8.45;;;3.65;;
51732;SDS011;39139;53.144;6.244;2023-08-08T03:56:15;8.83;;;3.20;;
51732;SDS011;39139;53.144;6.244;2023-08-08T03:58:41;8.95;;;3.08;;
51732;SDS011;39139;53.144;6.244;2023-08-08T04:01:07;11.70;;;2.80;;
51732;SDS011;39139;53.144;6.244;2023-08-08T04:03:32;8.23;;;3.10;;
51732;SDS011;39139;53.144;6.244;2023-08-08T04:05:58;7.93;;;2.47;;
51732;SDS011;39139;53.144;6.244;2023-08-08T04:08:23;6.97;;;2.17;;
51732;SDS011;39139;53.144;6.244;2023-08-08T04:10:49;5.63;;;2.40;;
51732;SDS011;39139;53.144;6.244;2023-08-08T04:13:15;8.93;;;2.45;;
51732;SDS011;39139;53.144;6.244;2023-08-08T04:15:40;4.00;;;2.13;;
51732;SDS011;39139;53.144;6.244;2023-08-08T04:18:06;6.28;;;2.30;;
51732;SDS011;39139;53.144;6.244;2023-08-08T04:20:32;3.72;;;2.60;;
51732;SDS011;39139;53.144;6.244;2023-08-08T04:22:58;8.88;;;2.95;;
51732;SDS011;39139;53.144;6.244;2023-08-08T04:25:24;10.63;;;3.15;;
51732;SDS011;39139;53.144;6.244;2023-08-08T04:27:50;8.60;;;2.22;;
51732;SDS011;39139;53.144;6.244;2023-08-08T04:30:16;5.82;;;1.98;;
51732;SDS011;39139;53.144;6.244;2023-08-08T04:32:41;8.82;;;2.55;;
51732;SDS011;39139;53.144;6.244;2023-08-08T04:35:10;6.97;;;2.08;;
51732;SDS011;39139;53.144;6.244;2023-08-08T04:37:36;7.38;;;2.28;;
51732;SDS011;39139;53.144;6.244;2023-08-08T04:40:01;7.63;;;2.55;;
51732;SDS011;39139;53.144;6.244;2023-08-08T04:42:27;9.77;;;2.35;;
51732;SDS011;39139;53.144;6.244;2023-08-08T04:44:53;6.13;;;2.40;;
51732;SDS011;39139;53.144;6.244;2023-08-08T04:47:18;5.97;;;1.73;;
51732;SDS011;39139;53.144;6.244;2023-08-08T04:49:44;8.70;;;2.83;;
51732;SDS011;39139;53.144;6.244;2023-08-08T04:52:10;9.95;;;2.75;;
51732;SDS011;39139;53.144;6.244;2023-08-08T04:54:35;8.45;;;2.17;;
51732;SDS011;39139;53.144;6.244;2023-08-08T04:57:01;7.78;;;2.05;;
51732;SDS011;39139;53.144;6.244;2023-08-08T04:59:27;5.25;;;1.73;;
51732;SDS011;39139;53.144;6.244;2023-08-08T05:01:52;6.22;;;1.98;;
51732;SDS011;39139;53.144;6.244;2023-08-08T05:04:18;6.63;;;1.90;;
51732;SDS011;39139;53.144;6.244;2023-08-08T05:06:46;7.40;;;1.63;;
51732;SDS011;39139;53.144;6.244;2023-08-08T05:09:12;6.88;;;1.77;;
51732;SDS011;39139;53.144;6.244;2023-08-08T05:11:37;3.50;;;1.48;;
51732;SDS011;39139;53.144;6.244;2023-08-08T05:14:03;6.18;;;1.67;;
51732;SDS011;39139;53.144;6.244;2023-08-08T05:16:31;6.28;;;1.80;;
51732;SDS011;39139;53.144;6.244;2023-08-08T05:18:56;7.20;;;2.15;;
51732;SDS011;39139;53.144;6.244;2023-08-08T05:21:22;8.48;;;1.83;;
51732;SDS011;39139;53.144;6.244;2023-08-08T05:23:48;10.68;;;1.88;;
51732;SDS011;39139;53.144;6.244;2023-08-08T05:26:14;7.05;;;1.73;;
51732;SDS011;39139;53.144;6.244;2023-08-08T05:28:40;8.45;;;1.50;;
51732;SDS011;39139;53.144;6.244;2023-08-08T05:31:06;4.35;;;1.20;;
51732;SDS011;39139;53.144;6.244;2023-08-08T05:33:32;8.00;;;1.70;;
51732;SDS011;39139;53.144;6.244;2023-08-08T05:35:58;9.15;;;1.35;;
51732;SDS011;39139;53.144;6.244;2023-08-08T05:38:23;4.63;;;1.42;;
51732;SDS011;39139;53.144;6.244;2023-08-08T05:40:49;7.38;;;1.50;;
51732;SDS011;39139;53.144;6.244;2023-08-08T05:43:15;7.10;;;1.30;;
51732;SDS011;39139;53.144;6.244;2023-08-08T05:45:44;6.45;;;1.70;;
51732;SDS011;39139;53.144;6.244;2023-08-08T05:48:10;6.32;;;1.35;;
51732;SDS011;39139;53.144;6.244;2023-08-08T05:50:37;10.02;;;2.03;;
51732;SDS011;39139;53.144;6.244;2023-08-08T05:53:04;15.00;;;1.60;;
51732;SDS011;39139;53.144;6.244;2023-08-08T05:55:29;7.00;;;1.63;;
51732;SDS011;39139;53.144;6.244;2023-08-08T05:57:58;10.13;;;1.67;;
51732;SDS011;39139;53.144;6.244;2023-08-08T06:00:24;11.83;;;1.90;;
51732;SDS011;39139;53.144;6.244;2023-08-08T06:02:49;10.63;;;1.67;;
51732;SDS011;39139;53.144;6.244;2023-08-08T06:05:20;6.88;;;1.67;;
51732;SDS011;39139;53.144;6.244;2023-08-08T06:07:46;8.60;;;1.77;;
51732;SDS011;39139;53.144;6.244;2023-08-08T06:10:12;11.75;;;2.22;;
51732;SDS011;39139;53.144;6.244;2023-08-08T06:12:38;6.55;;;1.70;;
51732;SDS011;39139;53.144;6.244;2023-08-08T06:15:04;4.18;;;1.40;;
51732;SDS011;39139;53.144;6.244;2023-08-08T06:17:30;8.50;;;1.33;;
51732;SDS011;39139;53.144;6.244;2023-08-08T06:19:55;7.25;;;1.52;;
51732;SDS011;39139;53.144;6.244;2023-08-08T06:22:22;9.85;;;1.35;;
51732;SDS011;39139;53.144;6.244;2023-08-08T06:24:48;9.98;;;2.22;;
51732;SDS011;39139;53.144;6.244;2023-08-08T06:27:14;5.93;;;1.42;;
51732;SDS011;39139;53.144;6.244;2023-08-08T06:29:39;7.35;;;2.15;;
51732;SDS011;39139;53.144;6.244;2023-08-08T06:32:05;5.60;;;1.42;;
51732;SDS011;39139;53.144;6.244;2023-08-08T06:34:31;5.72;;;1.40;;
51732;SDS011;39139;53.144;6.244;2023-08-08T06:36:57;8.40;;;1.25;;
51732;SDS011;39139;53.144;6.244;2023-08-08T06:39:22;11.23;;;1.77;;
51732;SDS011;39139;53.144;6.244;2023-08-08T06:41:48;8.68;;;1.55;;
51732;SDS011;39139;53.144;6.244;2023-08-08T06:44:14;4.68;;;1.42;;
51732;SDS011;39139;53.144;6.244;2023-08-08T06:46:40;6.05;;;1.20;;
51732;SDS011;39139;53.144;6.244;2023-08-08T06:49:06;5.85;;;1.20;;
51732;SDS011;39139;53.144;6.244;2023-08-08T06:51:32;5.93;;;1.05;;
51732;SDS011;39139;53.144;6.244;2023-08-08T06:53:58;9.82;;;1.30;;
51732;SDS011;39139;53.144;6.244;2023-08-08T06:56:25;12.20;;;1.67;;
51732;SDS011;39139;53.144;6.244;2023-08-08T06:58:53;7.53;;;1.40;;
51732;SDS011;39139;53.144;6.244;2023-08-08T07:01:19;9.00;;;1.40;;
51732;SDS011;39139;53.144;6.244;2023-08-08T07:03:45;8.60;;;1.33;;
51732;SDS011;39139;53.144;6.244;2023-08-08T07:06:11;7.38;;;1.38;;
51732;SDS011;39139;53.144;6.244;2023-08-08T07:08:37;9.82;;;1.08;;
51732;SDS011;39139;53.144;6.244;2023-08-08T07:11:04;8.00;;;1.40;;
51732;SDS011;39139;53.144;6.244;2023-08-08T07:13:33;9.43;;;1.30;;
51732;SDS011;39139;53.144;6.244;2023-08-08T07:15:59;9.80;;;1.15;;
51732;SDS011;39139;53.144;6.244;2023-08-08T07:18:25;9.85;;;1.33;;
51732;SDS011;39139;53.144;6.244;2023-08-08T07:20:51;8.73;;;1.25;;
51732;SDS011;39139;53.144;6.244;2023-08-08T07:23:17;13.32;;;1.55;;
51732;SDS011;39139;53.144;6.244;2023-08-08T07:25:43;5.30;;;1.13;;
51732;SDS011;39139;53.144;6.244;2023-08-08T07:28:10;5.18;;;1.35;;
51732;SDS011;39139;53.144;6.244;2023-08-08T07:30:35;6.20;;;1.38;;
51732;SDS011;39139;53.144;6.244;2023-08-08T07:33:01;9.40;;;1.00;;
51732;SDS011;39139;53.144;6.244;2023-08-08T07:35:27;9.38;;;1.13;;
51732;SDS011;39139;53.144;6.244;2023-08-08T07:37:53;6.38;;;0.90;;
51732;SDS011;39139;53.144;6.244;2023-08-08T07:40:19;7.03;;;1.38;;
51732;SDS011;39139;53.144;6.244;2023-08-08T07:42:46;8.63;;;1.20;;
51732;SDS011;39139;53.144;6.244;2023-08-08T07:45:12;5.65;;;1.38;;
51732;SDS011;39139;53.144;6.244;2023-08-08T07:47:38;5.93;;;1.10;;
51732;SDS011;39139;53.144;6.244;2023-08-08T07:50:04;8.02;;;1.17;;
51732;SDS011;39139;53.144;6.244;2023-08-08T07:52:33;10.40;;;0.80;;
51732;SDS011;39139;53.144;6.244;2023-08-08T07:55:02;5.60;;;1.00;;
51732;SDS011;39139;53.144;6.244;2023-08-08T07:57:29;6.28;;;0.80;;
51732;SDS011;39139;53.144;6.244;2023-08-08T08:00:00;6.03;;;1.10;;
51732;SDS011;39139;53.144;6.244;2023-08-08T08:02:32;4.72;;;1.23;;
51732;SDS011;39139;53.144;6.244;2023-08-08T08:04:58;6.28;;;1.08;;
51732;SDS011;39139;53.144;6.244;2023-08-08T08:07:23;7.63;;;1.17;;
51732;SDS011;39139;53.144;6.244;2023-08-08T08:09:49;9.48;;;1.25;;
51732;SDS011;39139;53.144;6.244;2023-08-08T08:12:15;6.97;;;1.27;;
51732;SDS011;39139;53.144;6.244;2023-08-08T08:14:40;5.15;;;0.93;;
51732;SDS011;39139;53.144;6.244;2023-08-08T08:17:06;6.75;;;1.58;;
51732;SDS011;39139;53.144;6.244;2023-08-08T08:19:32;6.85;;;1.15;;
51732;SDS011;39139;53.144;6.244;2023-08-08T08:21:57;7.28;;;1.33;;
51732;SDS011;39139;53.144;6.244;2023-08-08T08:24:23;5.13;;;1.00;;
51732;SDS011;39139;53.144;6.244;2023-08-08T08:26:48;8.73;;;1.20;;
51732;SDS011;39139;53.144;6.244;2023-08-08T08:29:14;3.38;;;0.82;;
51732;SDS011;39139;53.144;6.244;2023-08-08T08:31:40;6.60;;;1.05;;
51732;SDS011;39139;53.144;6.244;2023-08-08T08:34:05;8.50;;;1.25;;
51732;SDS011;39139;53.144;6.244;2023-08-08T08:36:31;4.75;;;1.27;;
51732;SDS011;39139;53.144;6.244;2023-08-08T08:38:57;5.43;;;1.60;;
51732;SDS011;39139;53.144;6.244;2023-08-08T08:41:25;6.75;;;1.10;;
51732;SDS011;39139;53.144;6.244;2023-08-08T08:43:52;6.25;;;1.20;;
51732;SDS011;39139;53.144;6.244;2023-08-08T08:46:20;5.50;;;1.27;;
51732;SDS011;39139;53.144;6.244;2023-08-08T08:48:47;8.60;;;1.17;;
51732;SDS011;39139;53.144;6.244;2023-08-08T08:51:14;9.05;;;1.58;;
51732;SDS011;39139;53.144;6.244;2023-08-08T08:53:41;9.38;;;1.30;;
51732;SDS011;39139;53.144;6.244;2023-08-08T08:56:08;7.18;;;1.20;;
51732;SDS011;39139;53.144;6.244;2023-08-08T08:58:34;5.30;;;0.82;;
51732;SDS011;39139;53.144;6.244;2023-08-08T09:01:00;5.97;;;0.90;;
51732;SDS011;39139;53.144;6.244;2023-08-08T09:03:26;5.25;;;1.15;;
51732;SDS011;39139;53.144;6.244;2023-08-08T09:05:52;6.00;;;0.85;;
51732;SDS011;39139;53.144;6.244;2023-08-08T09:08:19;3.53;;;0.63;;
51732;SDS011;39139;53.144;6.244;2023-08-08T09:10:45;5.35;;;0.70;;
51732;SDS011;39139;53.144;6.244;2023-08-08T09:13:11;4.63;;;0.68;;
51732;SDS011;39139;53.144;6.244;2023-08-08T09:15:37;5.50;;;1.05;;
51732;SDS011;39139;53.144;6.244;2023-08-08T09:18:02;4.47;;;0.63;;
51732;SDS011;39139;53.144;6.244;2023-08-08T09:20:28;4.00;;;0.88;;
51732;SDS011;39139;53.144;6.244;2023-08-08T09:22:54;7.40;;;1.00;;
51732;SDS011;39139;53.144;6.244;2023-08-08T09:25:20;7.25;;;0.80;;
51732;SDS011;39139;53.144;6.244;2023-08-08T09:27:46;6.00;;;0.70;;
51732;SDS011;39139;53.144;6.244;2023-08-08T09:30:12;10.80;;;1.40;;
51732;SDS011;39139;53.144;6.244;2023-08-08T09:32:38;9.48;;;1.48;;
51732;SDS011;39139;53.144;6.244;2023-08-08T09:35:04;5.47;;;0.68;;
51732;SDS011;39139;53.144;6.244;2023-08-08T09:37:34;4.70;;;1.08;;
51732;SDS011;39139;53.144;6.244;2023-08-08T09:40:01;10.95;;;1.33;;
51732;SDS011;39139;53.144;6.244;2023-08-08T09:42:30;3.33;;;0.70;;
51732;SDS011;39139;53.144;6.244;2023-08-08T09:44:56;7.45;;;0.90;;
51732;SDS011;39139;53.144;6.244;2023-08-08T09:47:23;4.97;;;0.90;;
51732;SDS011;39139;53.144;6.244;2023-08-08T09:49:49;8.20;;;1.23;;
51732;SDS011;39139;53.144;6.244;2023-08-08T09:52:15;4.28;;;1.27;;
51732;SDS011;39139;53.144;6.244;2023-08-08T09:54:42;5.72;;;1.17;;
51732;SDS011;39139;53.144;6.244;2023-08-08T09:57:08;4.00;;;0.80;;
51732;SDS011;39139;53.144;6.244;2023-08-08T09:59:34;5.25;;;1.20;;
51732;SDS011;39139;53.144;6.244;2023-08-08T10:02:00;5.13;;;0.98;;
51732;SDS011;39139;53.144;6.244;2023-08-08T10:04:26;3.13;;;1.15;;
51732;SDS011;39139;53.144;6.244;2023-08-08T10:06:52;7.35;;;1.42;;
51732;SDS011;39139;53.144;6.244;2023-08-08T10:09:18;3.78;;;1.13;;
51732;SDS011;39139;53.144;6.244;2023-08-08T10:11:44;2.97;;;1.00;;
51732;SDS011;39139;53.144;6.244;2023-08-08T10:14:11;6.25;;;0.90;;
51732;SDS011;39139;53.144;6.244;2023-08-08T10:16:37;5.07;;;1.05;;
51732;SDS011;39139;53.144;6.244;2023-08-08T10:19:04;7.72;;;0.90;;
51732;SDS011;39139;53.144;6.244;2023-08-08T10:21:36;4.28;;;1.27;;
51732;SDS011;39139;53.144;6.244;2023-08-08T10:24:06;6.53;;;1.02;;
51732;SDS011;39139;53.144;6.244;2023-08-08T10:29:19;4.78;;;1.15;;
51732;SDS011;39139;53.144;6.244;2023-08-08T10:32:05;5.22;;;1.02;;
51732;SDS011;39139;53.144;6.244;2023-08-08T10:34:39;8.48;;;1.45;;
51732;SDS011;39139;53.144;6.244;2023-08-08T10:37:09;3.08;;;0.50;;
51732;SDS011;39139;53.144;6.244;2023-08-08T10:39:50;4.63;;;0.65;;
51732;SDS011;39139;53.144;6.244;2023-08-08T10:42:18;8.53;;;1.13;;
51732;SDS011;39139;53.144;6.244;2023-08-08T10:44:50;5.90;;;0.85;;
51732;SDS011;39139;53.144;6.244;2023-08-08T10:47:23;7.85;;;1.15;;
51732;SDS011;39139;53.144;6.244;2023-08-08T10:50:07;4.97;;;0.90;;
51732;SDS011;39139;53.144;6.244;2023-08-08T10:55:30;3.38;;;0.82;;
51732;SDS011;39139;53.144;6.244;2023-08-08T11:00:34;7.35;;;0.90;;
51732;SDS011;39139;53.144;6.244;2023-08-08T11:03:01;5.45;;;1.25;;
51732;SDS011;39139;53.144;6.244;2023-08-08T11:05:30;9.23;;;1.02;;
51732;SDS011;39139;53.144;6.244;2023-08-08T11:08:02;4.47;;;0.75;;
51732;SDS011;39139;53.144;6.244;2023-08-08T11:10:29;6.65;;;1.30;;
51732;SDS011;39139;53.144;6.244;2023-08-08T11:13:00;7.25;;;1.02;;
51732;SDS011;39139;53.144;6.244;2023-08-08T11:15:34;7.82;;;1.00;;
51732;SDS011;39139;53.144;6.244;2023-08-08T11:18:01;6.60;;;0.90;;
51732;SDS011;39139;53.144;6.244;2023-08-08T11:20:31;6.13;;;1.10;;
51732;SDS011;39139;53.144;6.244;2023-08-08T11:22:58;7.18;;;1.13;;
51732;SDS011;39139;53.144;6.244;2023-08-08T11:25:25;6.07;;;1.05;;
51732;SDS011;39139;53.144;6.244;2023-08-08T11:27:52;9.05;;;1.38;;
51732;SDS011;39139;53.144;6.244;2023-08-08T11:30:19;6.57;;;0.95;;
51732;SDS011;39139;53.144;6.244;2023-08-08T11:32:48;3.40;;;0.52;;
51732;SDS011;39139;53.144;6.244;2023-08-08T11:35:16;5.40;;;0.80;;
51732;SDS011;39139;53.144;6.244;2023-08-08T11:37:43;5.85;;;1.15;;
51732;SDS011;39139;53.144;6.244;2023-08-08T11:40:11;5.10;;;0.95;;
51732;SDS011;39139;53.144;6.244;2023-08-08T11:42:38;3.65;;;0.95;;
51732;SDS011;39139;53.144;6.244;2023-08-08T11:45:06;6.80;;;0.82;;
51732;SDS011;39139;53.144;6.244;2023-08-08T11:47:34;4.68;;;0.90;;
51732;SDS011;39139;53.144;6.244;2023-08-08T11:50:04;6.75;;;0.85;;
51732;SDS011;39139;53.144;6.244;2023-08-08T11:52:32;5.03;;;1.00;;
51732;SDS011;39139;53.144;6.244;2023-08-08T11:54:58;7.82;;;0.80;;
51732;SDS011;39139;53.144;6.244;2023-08-08T11:57:27;8.55;;;1.25;;
51732;SDS011;39139;53.144;6.244;2023-08-08T11:59:53;2.58;;;0.68;;
51732;SDS011;39139;53.144;6.244;2023-08-08T12:02:19;5.53;;;0.95;;
51732;SDS011;39139;53.144;6.244;2023-08-08T12:04:45;6.15;;;1.00;;
51732;SDS011;39139;53.144;6.244;2023-08-08T12:07:11;9.55;;;1.13;;
51732;SDS011;39139;53.144;6.244;2023-08-08T12:09:37;11.98;;;1.10;;
51732;SDS011;39139;53.144;6.244;2023-08-08T12:12:03;5.45;;;0.73;;
51732;SDS011;39139;53.144;6.244;2023-08-08T12:14:30;10.27;;;1.20;;
51732;SDS011;39139;53.144;6.244;2023-08-08T12:17:01;9.95;;;1.60;;
51732;SDS011;39139;53.144;6.244;2023-08-08T12:19:27;3.63;;;1.05;;
51732;SDS011;39139;53.144;6.244;2023-08-08T12:21:54;12.15;;;1.48;;
51732;SDS011;39139;53.144;6.244;2023-08-08T12:24:19;5.20;;;1.25;;
51732;SDS011;39139;53.144;6.244;2023-08-08T12:26:45;10.60;;;1.00;;
51732;SDS011;39139;53.144;6.244;2023-08-08T12:29:12;8.23;;;0.88;;
51732;SDS011;39139;53.144;6.244;2023-08-08T12:31:38;7.40;;;0.85;;
51732;SDS011;39139;53.144;6.244;2023-08-08T12:34:04;6.72;;;1.10;;
51732;SDS011;39139;53.144;6.244;2023-08-08T12:36:30;8.80;;;1.63;;
51732;SDS011;39139;53.144;6.244;2023-08-08T12:38:56;6.35;;;1.15;;
51732;SDS011;39139;53.144;6.244;2023-08-08T12:41:25;5.95;;;1.52;;
51732;SDS011;39139;53.144;6.244;2023-08-08T12:43:51;10.77;;;1.35;;
51732;SDS011;39139;53.144;6.244;2023-08-08T12:46:17;7.55;;;0.85;;
51732;SDS011;39139;53.144;6.244;2023-08-08T12:48:43;4.43;;;0.80;;
51732;SDS011;39139;53.144;6.244;2023-08-08T12:51:09;8.13;;;0.95;;
51732;SDS011;39139;53.144;6.244;2023-08-08T12:53:35;9.13;;;1.33;;
51732;SDS011;39139;53.144;6.244;2023-08-08T12:56:01;3.42;;;0.77;;
51732;SDS011;39139;53.144;6.244;2023-08-08T12:58:27;4.90;;;1.02;;
51732;SDS011;39139;53.144;6.244;2023-08-08T13:00:53;6.65;;;1.10;;
51732;SDS011;39139;53.144;6.244;2023-08-08T13:03:19;3.80;;;1.02;;
51732;SDS011;39139;53.144;6.244;2023-08-08T13:05:45;9.10;;;0.88;;
51732;SDS011;39139;53.144;6.244;2023-08-08T13:08:12;6.35;;;1.20;;
51732;SDS011;39139;53.144;6.244;2023-08-08T13:10:39;8.10;;;1.20;;
51732;SDS011;39139;53.144;6.244;2023-08-08T13:13:04;7.80;;;0.82;;
51732;SDS011;39139;53.144;6.244;2023-08-08T13:15:30;5.47;;;0.85;;
51732;SDS011;39139;53.144;6.244;2023-08-08T13:17:56;5.97;;;0.68;;
51732;SDS011;39139;53.144;6.244;2023-08-08T13:20:22;7.25;;;0.85;;
51732;SDS011;39139;53.144;6.244;2023-08-08T13:22:50;6.93;;;0.85;;
51732;SDS011;39139;53.144;6.244;2023-08-08T13:25:15;5.88;;;0.80;;
51732;SDS011;39139;53.144;6.244;2023-08-08T13:27:43;17.05;;;1.35;;
51732;SDS011;39139;53.144;6.244;2023-08-08T13:30:10;4.07;;;0.93;;
51732;SDS011;39139;53.144;6.244;2023-08-08T13:32:36;4.93;;;0.77;;
51732;SDS011;39139;53.144;6.244;2023-08-08T13:35:01;8.63;;;1.33;;
51732;SDS011;39139;53.144;6.244;2023-08-08T13:37:27;6.47;;;0.98;;
51732;SDS011;39139;53.144;6.244;2023-08-08T13:39:53;3.50;;;1.27;;
51732;SDS011;39139;53.144;6.244;2023-08-08T13:42:19;6.53;;;1.45;;
51732;SDS011;39139;53.144;6.244;2023-08-08T13:44:44;4.75;;;1.20;;
51732;SDS011;39139;53.144;6.244;2023-08-08T13:47:10;5.57;;;0.95;;
51732;SDS011;39139;53.144;6.244;2023-08-08T13:49:36;5.75;;;1.02;;
51732;SDS011;39139;53.144;6.244;2023-08-08T13:52:01;7.25;;;1.50;;
51732;SDS011;39139;53.144;6.244;2023-08-08T13:54:27;3.17;;;0.80;;
51732;SDS011;39139;53.144;6.244;2023-08-08T13:56:53;9.75;;;1.42;;
51732;SDS011;39139;53.144;6.244;2023-08-08T13:59:19;5.75;;;1.17;;
51732;SDS011;39139;53.144;6.244;2023-08-08T14:01:44;5.18;;;0.57;;
51732;SDS011;39139;53.144;6.244;2023-08-08T14:04:10;8.38;;;1.40;;
51732;SDS011;39139;53.144;6.244;2023-08-08T14:06:35;6.30;;;1.38;;
51732;SDS011;39139;53.144;6.244;2023-08-08T14:09:01;8.23;;;1.70;;
51732;SDS011;39139;53.144;6.244;2023-08-08T14:11:28;3.92;;;0.90;;
51732;SDS011;39139;53.144;6.244;2023-08-08T14:13:54;5.43;;;1.05;;
51732;SDS011;39139;53.144;6.244;2023-08-08T14:16:20;3.03;;;0.70;;
51732;SDS011;39139;53.144;6.244;2023-08-08T14:18:45;2.97;;;0.57;;
51732;SDS011;39139;53.144;6.244;2023-08-08T14:21:11;5.65;;;0.82;;
51732;SDS011;39139;53.144;6.244;2023-08-08T14:23:36;4.95;;;1.00;;
51732;SDS011;39139;53.144;6.244;2023-08-08T14:26:02;9.13;;;1.38;;
51732;SDS011;39139;53.144;6.244;2023-08-08T14:28:28;4.60;;;1.08;;
51732;SDS011;39139;53.144;6.244;2023-08-08T14:30:53;6.63;;;1.10;;
51732;SDS011;39139;53.144;6.244;2023-08-08T14:33:19;7.20;;;0.90;;
51732;SDS011;39139;53.144;6.244;2023-08-08T14:35:45;8.70;;;1.60;;
51732;SDS011;39139;53.144;6.244;2023-08-08T14:38:10;5.45;;;0.70;;
51732;SDS011;39139;53.144;6.244;2023-08-08T14:40:36;7.57;;;0.85;;
51732;SDS011;39139;53.144;6.244;2023-08-08T14:43:02;6.15;;;1.00;;
51732;SDS011;39139;53.144;6.244;2023-08-08T14:45:28;7.07;;;0.85;;
51732;SDS011;39139;53.144;6.244;2023-08-08T14:47:55;6.15;;;1.33;;
51732;SDS011;39139;53.144;6.244;2023-08-08T14:50:20;7.05;;;0.80;;
51732;SDS011;39139;53.144;6.244;2023-08-08T14:52:46;6.40;;;1.02;;